Map

Track Data

SID SEASON NUMBER BASIN SUBBASIN NAME ISO_TIME NATURE LAT LON WMO_WIND WMO_PRES WMO_AGENCY TRACK_TYPE DIST2LAND LANDFALL IFLAG USA_AGENCY USA_ATCF_ID USA_LAT USA_LON USA_RECORD USA_STATUS USA_WIND USA_PRES USA_SSHS USA_R34_NE USA_R34_SE USA_R34_SW USA_R34_NW USA_R50_NE USA_R50_SE USA_R50_SW USA_R50_NW USA_R64_NE USA_R64_SE USA_R64_SW USA_R64_NW USA_POCI USA_ROCI USA_RMW USA_EYE TOKYO_LAT TOKYO_LON TOKYO_GRADE TOKYO_WIND TOKYO_PRES TOKYO_R50_DIR TOKYO_R50_LONG TOKYO_R50_SHORT TOKYO_R30_DIR TOKYO_R30_LONG TOKYO_R30_SHORT TOKYO_LAND CMA_LAT CMA_LON CMA_CAT CMA_WIND CMA_PRES HKO_LAT HKO_LON HKO_CAT HKO_WIND HKO_PRES NEWDELHI_LAT NEWDELHI_LON NEWDELHI_GRADE NEWDELHI_WIND NEWDELHI_PRES NEWDELHI_CI NEWDELHI_DP NEWDELHI_POCI REUNION_LAT REUNION_LON REUNION_TYPE REUNION_WIND REUNION_PRES REUNION_TNUM REUNION_CI REUNION_RMW REUNION_R34_NE REUNION_R34_SE REUNION_R34_SW REUNION_R34_NW REUNION_R50_NE REUNION_R50_SE REUNION_R50_SW REUNION_R50_NW REUNION_R64_NE REUNION_R64_SE REUNION_R64_SW REUNION_R64_NW BOM_LAT BOM_LON BOM_TYPE BOM_WIND BOM_PRES BOM_TNUM BOM_CI BOM_RMW BOM_R34_NE BOM_R34_SE BOM_R34_SW BOM_R34_NW BOM_R50_NE BOM_R50_SE BOM_R50_SW BOM_R50_NW BOM_R64_NE BOM_R64_SE BOM_R64_SW BOM_R64_NW BOM_ROCI BOM_POCI BOM_EYE BOM_POS_METHOD BOM_PRES_METHOD NADI_LAT NADI_LON NADI_CAT NADI_WIND NADI_PRES WELLINGTON_LAT WELLINGTON_LON WELLINGTON_WIND WELLINGTON_PRES DS824_LAT DS824_LON DS824_STAGE DS824_WIND DS824_PRES TD9636_LAT TD9636_LON TD9636_STAGE TD9636_WIND TD9636_PRES TD9635_LAT TD9635_LON TD9635_WIND TD9635_PRES TD9635_ROCI NEUMANN_LAT NEUMANN_LON NEUMANN_CLASS NEUMANN_WIND NEUMANN_PRES MLC_LAT MLC_LON MLC_CLASS MLC_WIND MLC_PRES USA_GUST BOM_GUST BOM_GUST_PER REUNION_GUST REUNION_GUST_PER USA_SEAHGT USA_SEARAD_NE USA_SEARAD_SE USA_SEARAD_SW USA_SEARAD_NW STORM_SPEED STORM_DIR
1986011S12130 1986 10 SI WA NOT_NAMED 1986-01-11 00:00:00 NR -11.9000 130.400 main 11 11 __________O___ -1 -11.9000 130.400 1 3 187
1986011S12130 1986 10 SI WA NOT_NAMED 1986-01-11 03:00:00 NR -12.0416 130.377 main 22 22 __________P___ -1 -12.0416 130.377 1 3 191
1986011S12130 1986 10 SI WA NOT_NAMED 1986-01-11 06:00:00 NR -12.1804 130.339 main 44 39 __________P___ -1 -12.1804 130.339 1 3 201
1986011S12130 1986 10 SI WA NOT_NAMED 1986-01-11 09:00:00 NR -12.3137 130.273 main 39 39 __________P___ -1 -12.3137 130.273 1 2 221
1986011S12130 1986 10 SI WA NOT_NAMED 1986-01-11 12:00:00 TS -12.3592 130.175 main 40 39 O_________P_O_ jtwc_sh SH081986 -12.2000 130.200 25 -1 -12.4388 130.163 1 -12.2000 130.200 TC 25 3 237
1986011S12130 1986 10 SI WA NOT_NAMED 1986-01-11 15:00:00 TS -12.4839 130.009 main 48 48 P_________P_P_ SH081986 -12.4150 130.023 25 -1 -12.5529 129.995 1 -12.4150 130.023 TC 25 5 236
1986011S12130 1986 10 SI WA NOT_NAMED 1986-01-11 18:00:00 TS -12.6212 129.782 main 55 54 O_________P_O_ jtwc_sh SH081986 -12.6000 129.800 25 -1 -12.6531 129.755 1 -12.6000 129.800 TC 25 6 245
1986011S12130 1986 10 SI WA NOT_NAMED 1986-01-11 21:00:00 TS -12.7321 129.473 main 73 73 P_________P_P_ SH081986 -12.7299 129.495 25 -1 -12.7365 129.428 1 -12.7299 129.495 TC 25 7 256
1986011S12130 1986 10 SI WA NOT_NAMED 1986-01-12 00:00:00 TS -12.8000 129.067 main 109 109 O_________O_O_ jtwc_sh SH081986 -12.8000 129.100 25 -1 -12.8000 129.000 1 -12.8000 129.100 TC 25 9 264
1986011S12130 1986 10 SI WA NOT_NAMED 1986-01-12 03:00:00 TS -12.8239 128.585 main 151 148 P_________P_P_ SH081986 -12.8149 128.645 25 -1 -12.8420 128.464 1 -12.8149 128.645 TC 25 10 269
1986011S12130 1986 10 SI WA NOT_NAMED 1986-01-12 06:00:00 TS -12.8226 128.015 main 148 116 O_________P_O_ jtwc_sh SH081986 -12.8000 128.100 25 -1 -12.8678 127.846 1 -12.8000 128.100 TC 25 12 270
1986011S12130 1986 10 SI WA NOT_NAMED 1986-01-12 09:00:00 TS -12.8232 127.380 main 116 111 P_________P_P_ SH081986 -12.7924 127.480 27 -1 -12.8846 127.180 1 -12.7924 127.480 TC 27 13 270
1986011S12130 1986 10 SI WA NOT_NAMED 1986-01-12 12:00:00 TS -12.8333 126.700 main 114 114 O_________O_O_ jtwc_sh SH081986 -12.8000 126.800 30 -1 -12.9000 126.500 1 -12.8000 126.800 TC 30 13 269
1986011S12130 1986 10 SI WA NOT_NAMED 1986-01-12 15:00:00 TS -12.8569 126.038 main 123 123 P_________P_P_ SH081986 -12.8273 126.115 30 -1 -12.9160 125.885 1 -12.8273 126.115 TC 30 13 267
1986011S12130 1986 10 SI WA NOT_NAMED 1986-01-12 18:00:00 TS -12.9112 125.353 main 144 144 O_________P_O_ jtwc_sh SH081986 -12.9000 125.400 30 -1 -12.9336 125.259 1 -12.9000 125.400 TC 30 14 264
1986011S12130 1986 10 SI WA NOT_NAMED 1986-01-12 21:00:00 TS -13.0047 124.640 main 181 181 P_________P_P_ SH081986 -13.0273 124.657 30 -1 -12.9595 124.604 1 -13.0273 124.657 TC 30 14 261
1986011S12130 1986 10 SI WA NOT_NAMED 1986-01-13 00:00:00 TS -13.1333 123.900 main 218 217 O_________O_O_ jtwc_sh SH081986 -13.2000 123.900 30 -1 -13.0000 123.900 1 -13.2000 123.900 TC 30 15 261
1986011S12130 1986 10 SI WA NOT_NAMED 1986-01-13 03:00:00 TS -13.2333 123.119 main 275 275 P_________P_P_ SH081986 -13.3698 123.150 32 -1 -12.9603 123.059 1 -13.3698 123.150 TC 32 16 261
1986011S12130 1986 10 SI WA NOT_NAMED 1986-01-13 06:00:00 TS -13.3831 122.327 main 334 334 O_________P_O_ jtwc_sh SH081986 -13.6000 122.400 35 0 -12.9494 122.180 1 -13.6000 122.400 TC 35 16 256
1986011S12130 1986 10 SI WA NOT_NAMED 1986-01-13 09:00:00 TS -13.6212 121.526 main 357 352 P_________P_P_ SH081986 -13.9125 121.620 35 0 -13.0385 121.337 1 -13.9125 121.620 TC 35 16 249
1986011S12130 1986 10 SI WA NOT_NAMED 1986-01-13 12:00:00 TS -13.9667 120.800 main 359 357 O_________O_O_ jtwc_sh SH081986 -14.3000 120.900 35 0 -13.3000 120.600 2 -14.3000 120.900 TC 35 15 238
1986011S12130 1986 10 SI WA NOT_NAMED 1986-01-13 15:00:00 TS -14.4179 120.215 main 371 355 P_________P_P_ SH081986 -14.7347 120.312 35 0 -13.7845 120.022 2 -14.7347 120.312 TC 35 15 225
1986011S12130 1986 10 SI WA NOT_NAMED 1986-01-13 18:00:00 TS -14.9964 119.739 main 363 354 O_________P_O_ jtwc_sh SH081986 -15.2000 119.800 35 0 -14.4536 119.576 2 -15.2000 119.800 TC 35 15 217
1986011S12130 1986 10 SI WA NOT_NAMED 1986-01-13 21:00:00 TS -15.5809 119.295 main 361 361 P_________P_P_ SH081986 -15.6647 119.315 32 -1 -15.2461 119.217 2 -15.6647 119.315 TC 32 14 219
1986011S12130 1986 10 SI WA NOT_NAMED 1986-01-14 00:00:00 TS -16.1000 118.811 main 386 386 O_________O_O_ jtwc_sh SH081986 -16.1000 118.800 30 -1 -16.1000 118.900 1 -16.1000 118.800 TC 30 14 230
1986011S12130 1986 10 SI WA NOT_NAMED 1986-01-14 03:00:00 TS -16.4799 118.180 main 413 401 P___________P_ SH081986 -16.4799 118.180 30 -1 1 -16.4799 118.180 TC 30 14 241
1986011S12130 1986 10 SI WA NOT_NAMED 1986-01-14 06:00:00 TS -16.8000 117.500 main 405 391 O___________O_ jtwc_sh SH081986 -16.8000 117.500 30 -1 1 -16.8000 117.500 TC 30 14 246
1986011S12130 1986 10 SI WA NOT_NAMED 1986-01-14 09:00:00 TS -17.0654 116.803 main 391 372 P___________P_ SH081986 -17.0654 116.803 27 -1 1 -17.0654 116.803 TC 27 14 250
1986011S12130 1986 10 SI WA NOT_NAMED 1986-01-14 12:00:00 TS -17.3000 116.100 main 374 O___________O_ jtwc_sh SH081986 -17.3000 116.100 25 -1 -17.3000 116.100 TC 25 14 251

About IBTrACS Database

This database is a web-friendly format of International Best Track Archive for Climate Stewardship (IBTrACS), a global best track data archive curated by NOAA dating back to 1842.

Updated: 2021-10-08